SBME

Details ICAO SBME (MEA)
Name MACAE
Region Brazil
Timezone America/Sao_Paulo (UTC-3.0)
Plans Departing 29
Arriving 23
Stats Elevation 8 ft / 2 m (AMSL)
Location -22.343032° -41.766035°
Runways 1
Magnetic Variation 23.329° W
Sunrise 2018-05-26 09:18:13 UTC / 2018-05-26 06:18:13 Local
Sunset 2018-05-26 20:12:54 UTC / 2018-05-26 17:12:54 Local
Advertisement - Login to hide

Runways

ID Width Length Bearing (true) Bearing (mag) Surface Threshold Offset Overrun Length
06 98 ft / 30 m 3,973 ft / 1,211 m 33.02° 56.35° Asphalt 0 ft / 0 m 0 ft / 0 m
24 98 ft / 30 m 3,973 ft / 1,211 m 213.01° 236.34° Asphalt 0 ft / 0 m 0 ft / 0 m

Map

Weather


0- 5 10 15 20 25 30 35+ Temperature / ° C

Clouds and Precipitation
Forecast for 2018-05-26 12:00 UTC. Updated 3 hours ago

Ground ~20,000 ft ~40,000 ft Winds

METAR

SBME 261400Z 14005KT 9999 FEW025 SCT100 28/17 Q1023

TAF

TAF SBME 260800Z 2612/2624 21005KT 9999 FEW020 TX26/2618Z TN22/2623Z BECMG 2616/2618 19010KT SCT020 BECMG 2621/2623 14005KT RMK PGZ

Frequencies

Recorded 127.77 MHz ATIS
Tower 118.45 MHz TWR
Approach 129.30 MHz APP
Ground 121.70 MHz GND
Approach 120.00 MHz APP
Approach 119.20 MHz APP
Warning: Do not use this data for real-world aviation or navigation. No guarantee of current accuracy is given.